Time;durP1;ratioP1;P1;durP2;ratioP2;P2;SDS_P1;SDS_P2;PMS_P1;PMS_P2;Temp;Humidity;BMP_temperature;BMP_pressure;BME280_temperature;BME280_humidity;BME280_pressure;Samples;Min_cycle;Max_cycle;Signal;HPM_P1;HPM_P2
2022/12/05 00:02:02;;;;;;;22.43;12.40;;;;;;;;;;5048345;28;20255;-83
2022/12/05 00:04:31;;;;;;;20.33;12.50;;;;;;;;;;5063183;28;20222;-83
2022/12/05 00:06:59;;;;;;;22.60;11.27;;;;;;;;;;5076224;28;20202;-83
2022/12/05 00:09:28;;;;;;;21.73;13.93;;;;;;;;;;5062305;28;20225;-83
2022/12/05 00:11:56;;;;;;;22.40;13.37;;;;;;;;;;5046690;28;20261;-83
2022/12/05 00:14:25;;;;;;;20.30;12.43;;;;;;;;;;5051721;28;20301;-82
2022/12/05 00:16:53;;;;;;;18.60;12.30;;;;;;;;;;5056462;28;20240;-82
2022/12/05 00:19:23;;;;;;;15.47;8.37;;;;;;;;;;5075670;28;20209;-82
2022/12/05 00:21:51;;;;;;;13.80;8.73;;;;;;;;;;5075647;28;20236;-83
2022/12/05 00:24:20;;;;;;;21.80;12.83;;;;;;;;;;5075529;28;20197;-83
2022/12/05 00:26:48;;;;;;;17.37;10.97;;;;;;;;;;5044637;28;20232;-83
2022/12/05 00:29:17;;;;;;;19.30;12.87;;;;;;;;;;5056256;28;20213;-82
2022/12/05 00:31:45;;;;;;;22.90;14.77;;;;;;;;;;5051810;28;20238;-83
2022/12/05 00:34:14;;;;;;;13.37;10.07;;;;;;;;;;5062855;28;20205;-82
2022/12/05 00:36:43;;;;;;;22.50;15.73;;;;;;;;;;5057037;28;20221;-82
2022/12/05 00:39:14;;;;;;;17.90;13.40;;;;;;;;;;5057539;28;20265;-82
2022/12/05 00:41:43;;;;;;;16.80;11.87;;;;;;;;;;5072312;28;20280;-83
2022/12/05 00:44:12;;;;;;;14.50;11.53;;;;;;;;;;5064925;28;20194;-83
2022/12/05 00:46:41;;;;;;;14.53;10.57;;;;;;;;;;5057142;28;20223;-83
2022/12/05 00:49:11;;;;;;;15.80;10.73;;;;;;;;;;5075648;28;20201;-83
2022/12/05 00:51:40;;;;;;;20.13;11.63;;;;;;;;;;5044769;28;20194;-83
2022/12/05 00:54:11;;;;;;;12.50;9.43;;;;;;;;;;5057192;28;20229;-83
2022/12/05 00:56:39;;;;;;;15.00;11.47;;;;;;;;;;5055829;28;20214;-82
2022/12/05 00:59:08;;;;;;;9.83;8.47;;;;;;;;;;5050321;28;20288;-83
2022/12/05 01:01:38;;;;;;;16.63;8.10;;;;;;;;;;5074834;28;20217;-83
2022/12/05 01:04:08;;;;;;;10.53;8.40;;;;;;;;;;5056835;28;20218;-83
2022/12/05 01:06:37;;;;;;;13.50;9.87;;;;;;;;;;5057265;28;20205;-83
2022/12/05 01:09:05;;;;;;;9.97;8.37;;;;;;;;;;5056493;28;20201;-82
2022/12/05 01:11:35;;;;;;;12.70;9.60;;;;;;;;;;5074577;28;20229;-83
2022/12/05 01:14:08;;;;;;;14.53;9.80;;;;;;;;;;5058306;28;20218;-83
2022/12/05 01:16:38;;;;;;;12.17;8.50;;;;;;;;;;5047533;28;20194;-83
2022/12/05 01:19:07;;;;;;;20.40;13.53;;;;;;;;;;5074586;28;20193;-83
2022/12/05 01:21:36;;;;;;;12.57;9.17;;;;;;;;;;5074732;28;20212;-83
2022/12/05 01:24:04;;;;;;;15.90;11.53;;;;;;;;;;5052538;28;20194;-83
2022/12/05 01:26:33;;;;;;;20.20;13.73;;;;;;;;;;5066097;28;20284;-82
2022/12/05 01:29:03;;;;;;;12.60;8.67;;;;;;;;;;5056512;28;20288;-83
2022/12/05 01:31:32;;;;;;;17.50;10.27;;;;;;;;;;5056515;28;20229;-83
2022/12/05 01:34:01;;;;;;;12.10;9.10;;;;;;;;;;5055794;28;20217;-82
2022/12/05 01:36:30;;;;;;;11.63;8.70;;;;;;;;;;5061446;28;20199;-83
2022/12/05 01:38:59;;;;;;;18.63;11.23;;;;;;;;;;5044090;28;20222;-83
2022/12/05 01:41:30;;;;;;;17.07;11.27;;;;;;;;;;5055503;28;20201;-82
2022/12/05 01:44:00;;;;;;;15.37;10.80;;;;;;;;;;5036892;28;20248;-82
2022/12/05 01:46:32;;;;;;;10.00;8.47;;;;;;;;;;5051865;28;20301;-83
2022/12/05 01:49:02;;;;;;;16.57;9.47;;;;;;;;;;5056361;28;20202;-83
2022/12/05 01:51:31;;;;;;;13.40;10.30;;;;;;;;;;5056208;28;20243;-82
2022/12/05 01:54:00;;;;;;;12.43;10.50;;;;;;;;;;5056081;28;20256;-83
2022/12/05 01:56:28;;;;;;;13.03;9.40;;;;;;;;;;5073736;28;20224;-83
2022/12/05 01:58:57;;;;;;;16.20;8.03;;;;;;;;;;5056760;28;20202;-83
2022/12/05 02:01:25;;;;;;;11.90;9.17;;;;;;;;;;5055833;28;20220;-83
2022/12/05 02:03:57;;;;;;;17.07;11.53;;;;;;;;;;5056160;28;20241;-83
2022/12/05 02:06:27;;;;;;;11.90;9.63;;;;;;;;;;5073328;28;20206;-83
2022/12/05 02:08:55;;;;;;;11.03;8.30;;;;;;;;;;5073956;28;20260;-83
2022/12/05 02:11:25;;;;;;;16.97;11.70;;;;;;;;;;5043026;28;20328;-82
2022/12/05 02:14:03;;;;;;;13.00;9.60;;;;;;;;;;5055036;28;20251;-83
2022/12/05 02:16:37;;;;;;;15.67;11.07;;;;;;;;;;5055349;28;20196;-82
2022/12/05 02:19:20;;;;;;;13.83;10.33;;;;;;;;;;5050943;28;20220;-82
2022/12/05 02:22:07;;;;;;;8.30;7.40;;;;;;;;;;5039263;28;20202;-83
2022/12/05 02:24:54;;;;;;;13.60;10.73;;;;;;;;;;5072957;28;20200;-83
2022/12/05 02:27:32;;;;;;;16.30;12.13;;;;;;;;;;5054211;28;20213;-83
2022/12/05 02:30:05;;;;;;;14.90;12.20;;;;;;;;;;5055772;28;20217;-83
2022/12/05 02:32:37;;;;;;;9.20;7.23;;;;;;;;;;5055437;28;20277;-83
2022/12/05 02:35:10;;;;;;;14.13;10.73;;;;;;;;;;5055265;28;20268;-83
2022/12/05 02:37:41;;;;;;;14.40;10.53;;;;;;;;;;5064234;28;20198;-83
2022/12/05 02:40:13;;;;;;;14.13;10.87;;;;;;;;;;5049096;28;20226;-82
2022/12/05 02:42:44;;;;;;;15.23;9.73;;;;;;;;;;5053700;28;20202;-83
2022/12/05 02:45:15;;;;;;;18.53;13.20;;;;;;;;;;5057972;28;20221;-82
2022/12/05 02:47:45;;;;;;;13.90;9.90;;;;;;;;;;5043557;28;20226;-83
2022/12/05 02:50:15;;;;;;;16.20;10.60;;;;;;;;;;5072916;28;20205;-82
2022/12/05 02:52:46;;;;;;;15.97;11.43;;;;;;;;;;5055295;28;20250;-83
2022/12/05 02:55:15;;;;;;;12.07;8.50;;;;;;;;;;5054956;28;20213;-83
2022/12/05 02:57:44;;;;;;;12.77;9.17;;;;;;;;;;5055625;28;20292;-83
2022/12/05 03:00:14;;;;;;;15.63;11.50;;;;;;;;;;5072980;28;20197;-83
2022/12/05 03:02:43;;;;;;;18.57;12.80;;;;;;;;;;5072965;28;20217;-83
2022/12/05 03:05:16;;;;;;;7.10;6.37;;;;;;;;;;5039127;28;20253;-83
2022/12/05 03:07:46;;;;;;;10.80;7.73;;;;;;;;;;5035510;28;20233;-83
2022/12/05 03:10:16;;;;;;;12.57;9.47;;;;;;;;;;5070509;28;20227;-82
2022/12/05 03:12:45;;;;;;;12.57;10.37;;;;;;;;;;5055278;28;20204;-83
2022/12/05 03:15:16;;;;;;;12.07;9.23;;;;;;;;;;5041738;28;20237;-82
2022/12/05 03:17:47;;;;;;;11.03;7.57;;;;;;;;;;5055148;28;20297;-82
2022/12/05 03:20:19;;;;;;;10.67;7.63;;;;;;;;;;5035364;28;20218;-83
2022/12/05 03:22:50;;;;;;;12.27;8.53;;;;;;;;;;5049728;28;20233;-82
2022/12/05 03:25:19;;;;;;;13.93;7.90;;;;;;;;;;5059264;28;20203;-82
2022/12/05 03:27:50;;;;;;;10.03;8.70;;;;;;;;;;5045004;28;20289;-83
2022/12/05 03:30:21;;;;;;;17.93;12.23;;;;;;;;;;5059367;28;20194;-83
2022/12/05 03:32:53;;;;;;;13.63;10.37;;;;;;;;;;5043854;28;20293;-83
2022/12/05 03:35:24;;;;;;;14.37;9.90;;;;;;;;;;5057445;28;20226;-83
2022/12/05 03:37:53;;;;;;;11.63;8.70;;;;;;;;;;5052641;28;20226;-83
2022/12/05 03:40:28;;;;;;;16.20;11.40;;;;;;;;;;5068039;28;20233;-83
2022/12/05 03:42:58;;;;;;;13.03;9.57;;;;;;;;;;5059129;28;20217;-83
2022/12/05 03:45:32;;;;;;;15.33;11.40;;;;;;;;;;5046666;28;20289;-83
2022/12/05 03:48:04;;;;;;;15.20;9.40;;;;;;;;;;5058317;28;20197;-83
2022/12/05 03:50:35;;;;;;;16.07;11.00;;;;;;;;;;5045187;28;20202;-83
2022/12/05 03:53:06;;;;;;;13.20;9.67;;;;;;;;;;5058740;28;20223;-82
2022/12/05 03:55:51;;;;;;;15.23;8.87;;;;;;;;;;5063537;28;20198;-83
2022/12/05 03:58:23;;;;;;;13.00;9.67;;;;;;;;;;5047413;28;20198;-83
2022/12/05 04:00:54;;;;;;;17.67;10.87;;;;;;;;;;5057790;28;20190;-83
2022/12/05 04:03:25;;;;;;;20.53;11.47;;;;;;;;;;5074565;28;20209;-83
2022/12/05 04:05:56;;;;;;;14.20;11.00;;;;;;;;;;5046624;28;20300;-83
2022/12/05 04:08:27;;;;;;;16.07;12.13;;;;;;;;;;5058234;28;20201;-83
2022/12/05 04:10:58;;;;;;;23.57;15.03;;;;;;;;;;5058307;28;20233;-82
2022/12/05 04:13:34;;;;;;;19.10;9.57;;;;;;;;;;5075736;28;20233;-83
2022/12/05 04:18:53;;;;;;;19.83;13.13;;;;;;;;;;5069712;28;20214;-83
2022/12/05 04:21:37;;;;;;;14.43;9.90;;;;;;;;;;5074733;28;20300;-83
2022/12/05 04:26:57;;;;;;;23.27;14.23;;;;;;;;;;5057580;28;20201;-83
2022/12/05 04:29:27;;;;;;;19.73;13.50;;;;;;;;;;5068525;28;20206;-83
2022/12/05 04:31:59;;;;;;;15.90;10.77;;;;;;;;;;5057862;28;20224;-83
2022/12/05 04:34:29;;;;;;;20.47;14.63;;;;;;;;;;5075100;28;20194;-82
2022/12/05 04:37:00;;;;;;;9.57;5.87;;;;;;;;;;5057617;28;20283;-83
2022/12/05 04:39:32;;;;;;;15.50;12.57;;;;;;;;;;5057291;28;20289;-83
2022/12/05 04:42:02;;;;;;;18.60;11.67;;;;;;;;;;5057752;28;20225;-83
2022/12/05 04:44:33;;;;;;;16.87;12.10;;;;;;;;;;5052968;28;20289;-83
2022/12/05 04:47:04;;;;;;;16.53;11.13;;;;;;;;;;5050024;28;20190;-83
2022/12/05 04:49:33;;;;;;;19.73;12.77;;;;;;;;;;5051524;28;20202;-83
2022/12/05 04:52:03;;;;;;;10.93;8.97;;;;;;;;;;5050935;28;20306;-83
2022/12/05 04:54:32;;;;;;;10.47;8.17;;;;;;;;;;5045304;28;20226;-83
2022/12/05 04:57:06;;;;;;;13.00;7.77;;;;;;;;;;5044461;28;20229;-82
2022/12/05 04:59:34;;;;;;;26.57;16.93;;;;;;;;;;5048744;28;20199;-83
2022/12/05 05:02:07;;;;;;;15.80;11.47;;;;;;;;;;5055938;28;20221;-83
2022/12/05 05:04:37;;;;;;;19.53;11.87;;;;;;;;;;5065156;28;20229;-83
2022/12/05 05:07:06;;;;;;;14.40;9.23;;;;;;;;;;5053001;28;20195;-83
2022/12/05 05:09:35;;;;;;;10.57;7.47;;;;;;;;;;5066108;28;20252;-83
2022/12/05 05:12:03;;;;;;;16.77;10.20;;;;;;;;;;5043787;28;20298;-82
2022/12/05 05:14:32;;;;;;;18.80;7.07;;;;;;;;;;5045928;28;20218;-83
2022/12/05 05:17:00;;;;;;;15.17;9.97;;;;;;;;;;5043041;28;20233;-83
2022/12/05 05:19:30;;;;;;;13.03;9.20;;;;;;;;;;5062483;28;20198;-83
2022/12/05 05:21:59;;;;;;;15.13;10.37;;;;;;;;;;5074390;28;20221;-83
2022/12/05 05:24:27;;;;;;;18.90;13.57;;;;;;;;;;5056577;28;20277;-83
2022/12/05 05:26:55;;;;;;;23.10;10.03;;;;;;;;;;5044249;28;20233;-83
2022/12/05 05:29:25;;;;;;;11.97;9.37;;;;;;;;;;5056421;28;20284;-83
2022/12/05 05:31:53;;;;;;;21.00;12.23;;;;;;;;;;5056734;28;20198;-83
2022/12/05 05:34:22;;;;;;;12.63;8.87;;;;;;;;;;5043057;28;20229;-83
2022/12/05 05:36:53;;;;;;;18.17;11.40;;;;;;;;;;5048775;28;20211;-83
2022/12/05 05:39:21;;;;;;;8.63;7.50;;;;;;;;;;5060521;28;20297;-83
2022/12/05 05:41:50;;;;;;;10.27;9.27;;;;;;;;;;5065141;28;20202;-83
2022/12/05 05:44:18;;;;;;;7.03;5.33;;;;;;;;;;5037148;28;20232;-83
2022/12/05 05:46:46;;;;;;;9.33;6.70;;;;;;;;;;5063481;28;20220;-83
2022/12/05 05:49:15;;;;;;;7.43;5.93;;;;;;;;;;5052021;28;20253;-83
2022/12/05 05:51:43;;;;;;;9.80;7.93;;;;;;;;;;5036682;28;20244;-82
2022/12/05 05:54:13;;;;;;;11.27;8.03;;;;;;;;;;5036787;28;20297;-83
2022/12/05 05:56:41;;;;;;;7.10;5.10;;;;;;;;;;5065826;28;20267;-82
2022/12/05 05:59:10;;;;;;;17.73;9.80;;;;;;;;;;5051001;28;20286;-83
2022/12/05 06:01:38;;;;;;;17.27;7.73;;;;;;;;;;5066631;28;20231;-83
2022/12/05 06:04:07;;;;;;;15.00;8.97;;;;;;;;;;5042879;28;20217;-83
2022/12/05 06:06:35;;;;;;;7.70;5.77;;;;;;;;;;5056395;28;20293;-83
2022/12/05 06:09:06;;;;;;;7.10;4.90;;;;;;;;;;5043659;28;20264;-83
2022/12/05 06:11:36;;;;;;;6.77;5.37;;;;;;;;;;5041955;28;20249;-82
2022/12/05 06:14:04;;;;;;;6.47;5.80;;;;;;;;;;5056298;28;20190;-83
2022/12/05 06:16:33;;;;;;;7.60;5.37;;;;;;;;;;5071610;28;20220;-83
2022/12/05 06:19:01;;;;;;;12.23;6.53;;;;;;;;;;5045089;28;20200;-83
2022/12/05 06:21:30;;;;;;;5.13;4.40;;;;;;;;;;5042201;28;20237;-82
2022/12/05 06:23:58;;;;;;;8.30;5.73;;;;;;;;;;5073360;28;20190;-83
2022/12/05 06:26:27;;;;;;;7.27;5.80;;;;;;;;;;5042445;28;20189;-82
2022/12/05 06:28:56;;;;;;;3.43;3.13;;;;;;;;;;5056024;28;20205;-83
2022/12/05 06:31:29;;;;;;;7.60;6.80;;;;;;;;;;5038523;28;20221;-83
2022/12/05 06:34:00;;;;;;;10.83;6.27;;;;;;;;;;5047936;28;20259;-84
2022/12/05 06:36:29;;;;;;;6.50;5.50;;;;;;;;;;5072714;28;20217;-83
2022/12/05 06:38:57;;;;;;;7.67;5.10;;;;;;;;;;5043433;28;20202;-83
2022/12/05 06:41:26;;;;;;;3.93;3.13;;;;;;;;;;5072047;28;20206;-84
2022/12/05 06:43:55;;;;;;;2.97;2.77;;;;;;;;;;5072953;28;20254;-83
2022/12/05 06:46:31;;;;;;;5.77;5.03;;;;;;;;;;5035849;28;20248;-83
2022/12/05 06:48:59;;;;;;;4.30;3.90;;;;;;;;;;5050906;28;20220;-84
2022/12/05 06:51:28;;;;;;;4.27;3.73;;;;;;;;;;5047083;28;20288;-83
2022/12/05 06:53:56;;;;;;;7.73;5.70;;;;;;;;;;5051911;28;20210;-84
2022/12/05 06:56:25;;;;;;;6.50;5.90;;;;;;;;;;5045986;28;20210;-84
2022/12/05 06:58:55;;;;;;;6.53;3.63;;;;;;;;;;5066257;28;20236;-85
2022/12/05 07:01:39;;;;;;;5.13;3.00;;;;;;;;;;5069120;28;20222;-85
2022/12/05 07:04:12;;;;;;;7.77;5.23;;;;;;;;;;5042767;28;20225;-84
2022/12/05 07:06:40;;;;;;;8.70;6.43;;;;;;;;;;5055040;28;20292;-84
2022/12/05 07:09:14;;;;;;;9.13;4.80;;;;;;;;;;5073206;28;20219;-84
2022/12/05 07:11:43;;;;;;;10.87;6.73;;;;;;;;;;5055135;28;20241;-84
2022/12/05 07:14:11;;;;;;;5.37;4.17;;;;;;;;;;5055774;28;20270;-84
2022/12/05 07:16:59;;;;;;;5.13;3.40;;;;;;;;;;5066723;28;20218;-84
2022/12/05 07:19:29;;;;;;;3.03;2.73;;;;;;;;;;5036017;28;20198;-85
2022/12/05 07:21:57;;;;;;;5.60;3.93;;;;;;;;;;5061330;28;20197;-83
2022/12/05 07:24:26;;;;;;;5.37;4.83;;;;;;;;;;5054936;28;20281;-83
2022/12/05 07:26:54;;;;;;;7.57;6.27;;;;;;;;;;5058713;28;20193;-84
2022/12/05 07:29:22;;;;;;;4.13;3.70;;;;;;;;;;5054331;28;20204;-83
2022/12/05 07:31:51;;;;;;;5.87;4.93;;;;;;;;;;5035587;28;20230;-84
2022/12/05 07:34:19;;;;;;;6.87;5.43;;;;;;;;;;5049634;28;20235;-84
2022/12/05 07:36:49;;;;;;;7.13;6.43;;;;;;;;;;5046975;28;20244;-83
2022/12/05 07:39:17;;;;;;;4.93;4.53;;;;;;;;;;5050510;28;20205;-84
2022/12/05 07:41:46;;;;;;;5.30;4.47;;;;;;;;;;5054853;28;20235;-83
2022/12/05 07:44:14;;;;;;;5.30;4.77;;;;;;;;;;5070284;28;20210;-83
2022/12/05 07:46:43;;;;;;;8.13;5.93;;;;;;;;;;5053201;28;20202;-84
2022/12/05 07:49:11;;;;;;;7.90;5.37;;;;;;;;;;5038520;28;20212;-84
2022/12/05 07:51:40;;;;;;;3.97;3.20;;;;;;;;;;5055317;28;20204;-84
2022/12/05 07:54:09;;;;;;;4.60;3.73;;;;;;;;;;5041980;28;20194;-83
2022/12/05 07:56:38;;;;;;;6.03;5.00;;;;;;;;;;5055195;28;20236;-84
2022/12/05 07:59:14;;;;;;;7.10;4.40;;;;;;;;;;5048681;28;20222;-84
2022/12/05 08:01:43;;;;;;;7.23;5.23;;;;;;;;;;5035232;28;20206;-84
2022/12/05 08:04:12;;;;;;;10.33;9.13;;;;;;;;;;5035328;28;20253;-84
2022/12/05 08:06:43;;;;;;;4.60;3.87;;;;;;;;;;5053890;28;20198;-84
2022/12/05 08:09:13;;;;;;;8.13;5.23;;;;;;;;;;5055157;28;20318;-84
2022/12/05 08:11:41;;;;;;;5.13;4.63;;;;;;;;;;5075004;28;20234;-84
2022/12/05 08:14:15;;;;;;;6.87;4.87;;;;;;;;;;5066888;28;20218;-84
2022/12/05 08:16:43;;;;;;;5.73;4.63;;;;;;;;;;5055520;28;20288;-85
2022/12/05 08:19:14;;;;;;;4.43;4.03;;;;;;;;;;5058703;28;20212;-84
2022/12/05 08:21:42;;;;;;;7.77;4.90;;;;;;;;;;5053369;28;20209;-84
2022/12/05 08:24:12;;;;;;;6.30;4.67;;;;;;;;;;5050395;28;20225;-84
2022/12/05 08:26:41;;;;;;;2.47;1.87;;;;;;;;;;5072424;28;20260;-85
2022/12/05 08:29:10;;;;;;;9.40;6.10;;;;;;;;;;5038612;28;20210;-84
2022/12/05 08:31:40;;;;;;;6.93;5.83;;;;;;;;;;5075431;28;20197;-84
2022/12/05 08:34:11;;;;;;;6.37;4.07;;;;;;;;;;5058619;28;20209;-84
2022/12/05 08:36:40;;;;;;;4.57;4.00;;;;;;;;;;5051061;28;20194;-84
2022/12/05 08:39:10;;;;;;;8.57;6.27;;;;;;;;;;5051867;28;20217;-85
2022/12/05 08:41:40;;;;;;;5.73;4.77;;;;;;;;;;5058005;28;20213;-84
2022/12/05 08:44:09;;;;;;;6.33;5.50;;;;;;;;;;5057541;28;20236;-84
2022/12/05 08:46:38;;;;;;;7.13;5.63;;;;;;;;;;5057962;28;20269;-83
2022/12/05 08:49:07;;;;;;;7.37;4.43;;;;;;;;;;5057572;28;20201;-84
2022/12/05 08:51:35;;;;;;;3.07;2.83;;;;;;;;;;5057025;28;20227;-84
2022/12/05 08:54:04;;;;;;;4.97;3.77;;;;;;;;;;5041305;28;20225;-85
2022/12/05 08:56:32;;;;;;;8.33;5.73;;;;;;;;;;5066646;28;20220;-84
2022/12/05 08:59:02;;;;;;;14.00;4.50;;;;;;;;;;5075065;28;20224;-84
2022/12/05 09:01:37;;;;;;;5.43;4.27;;;;;;;;;;5046677;28;20214;-84
2022/12/05 09:04:07;;;;;;;10.57;5.57;;;;;;;;;;5049866;28;20230;-84
2022/12/05 09:06:38;;;;;;;5.00;4.10;;;;;;;;;;5051974;28;20223;-83
2022/12/05 09:09:07;;;;;;;4.87;4.23;;;;;;;;;;5038630;28;20221;-84
2022/12/05 09:11:39;;;;;;;9.23;3.90;;;;;;;;;;5052585;28;20251;-83
2022/12/05 09:14:09;;;;;;;6.43;5.70;;;;;;;;;;5057562;28;20212;-84
2022/12/05 09:16:38;;;;;;;7.30;4.23;;;;;;;;;;5052610;28;20207;-84
2022/12/05 09:19:11;;;;;;;6.23;4.73;;;;;;;;;;5047773;28;20209;-84
2022/12/05 09:21:39;;;;;;;3.83;3.43;;;;;;;;;;5061228;28;20244;-84
2022/12/05 09:24:08;;;;;;;7.00;5.10;;;;;;;;;;5057343;28;20193;-84
2022/12/05 09:26:36;;;;;;;5.83;5.27;;;;;;;;;;5071497;28;20194;-84
2022/12/05 09:29:08;;;;;;;6.10;3.33;;;;;;;;;;5046604;28;20280;-84
2022/12/05 09:31:50;;;;;;;2.87;2.60;;;;;;;;;;5045921;28;20208;-85
2022/12/05 09:34:19;;;;;;;3.23;2.93;;;;;;;;;;5068760;28;20224;-83
2022/12/05 09:36:50;;;;;;;6.63;4.27;;;;;;;;;;5054716;28;20255;-81
2022/12/05 09:39:37;;;;;;;4.53;4.13;;;;;;;;;;5044909;28;20217;-83
2022/12/05 09:42:19;;;;;;;6.80;4.30;;;;;;;;;;5060215;28;20202;-84
2022/12/05 09:44:57;;;;;;;7.13;4.50;;;;;;;;;;5048375;28;20186;-83
2022/12/05 09:47:33;;;;;;;10.17;6.53;;;;;;;;;;5046109;28;20210;-84
2022/12/05 09:50:03;;;;;;;3.37;3.07;;;;;;;;;;5059427;28;20238;-84
2022/12/05 09:52:34;;;;;;;3.53;3.23;;;;;;;;;;5060679;28;20235;-84
2022/12/05 09:55:05;;;;;;;3.70;3.37;;;;;;;;;;5046048;28;20212;-83
2022/12/05 09:57:38;;;;;;;9.97;4.10;;;;;;;;;;5047121;28;20205;-83
2022/12/05 10:00:08;;;;;;;5.03;3.43;;;;;;;;;;5060145;28;20209;-82
2022/12/05 10:02:42;;;;;;;5.53;3.97;;;;;;;;;;5044739;28;20220;-84
2022/12/05 10:05:13;;;;;;;6.37;4.83;;;;;;;;;;5043907;28;20225;-83
2022/12/05 10:07:49;;;;;;;4.43;3.53;;;;;;;;;;5044315;28;20202;-83
2022/12/05 10:10:23;;;;;;;4.03;3.63;;;;;;;;;;5063201;28;20205;-83
2022/12/05 10:12:57;;;;;;;7.23;4.37;;;;;;;;;;5045284;28;20205;-83
2022/12/05 10:15:30;;;;;;;6.53;2.90;;;;;;;;;;5058690;28;20255;-83
2022/12/05 10:18:02;;;;;;;3.97;3.57;;;;;;;;;;5043255;28;20194;-82
2022/12/05 10:20:33;;;;;;;5.97;3.53;;;;;;;;;;5044863;28;20228;-83
2022/12/05 10:23:03;;;;;;;5.20;3.23;;;;;;;;;;5047142;28;20225;-83
2022/12/05 10:25:33;;;;;;;5.43;4.87;;;;;;;;;;5044686;28;20193;-83
2022/12/05 10:28:03;;;;;;;5.47;2.90;;;;;;;;;;5058341;28;20209;-82
2022/12/05 10:30:34;;;;;;;2.43;2.23;;;;;;;;;;5044548;28;20275;-82
2022/12/05 10:33:11;;;;;;;5.87;3.90;;;;;;;;;;5059860;28;20201;-81
2022/12/05 10:35:40;;;;;;;3.60;3.30;;;;;;;;;;5061538;28;20236;-83
2022/12/05 10:38:12;;;;;;;4.23;3.77;;;;;;;;;;5042146;28;20469;-83
2022/12/05 10:40:42;;;;;;;8.47;3.97;;;;;;;;;;5050427;28;20197;-83
2022/12/05 10:43:12;;;;;;;6.90;6.10;;;;;;;;;;5045739;28;20392;-83
2022/12/05 10:45:42;;;;;;;6.53;4.47;;;;;;;;;;5064856;28;20225;-83
2022/12/05 10:48:14;;;;;;;4.70;3.77;;;;;;;;;;5047697;28;20260;-82
2022/12/05 10:50:45;;;;;;;4.30;3.17;;;;;;;;;;5064389;28;20209;-83
2022/12/05 10:53:16;;;;;;;3.53;3.23;;;;;;;;;;5052775;28;20297;-82
2022/12/05 10:55:46;;;;;;;5.97;4.17;;;;;;;;;;5050291;28;20201;-82
2022/12/05 10:58:34;;;;;;;6.07;4.73;;;;;;;;;;5064115;28;20201;-83
2022/12/05 11:01:08;;;;;;;7.80;5.50;;;;;;;;;;5043889;28;20189;-82
2022/12/05 11:03:40;;;;;;;3.07;2.37;;;;;;;;;;5062167;28;20252;-84
2022/12/05 11:06:16;;;;;;;3.67;3.37;;;;;;;;;;5042755;28;20253;-83
2022/12/05 11:08:52;;;;;;;2.50;2.07;;;;;;;;;;5041510;28;20210;-83
2022/12/05 11:11:33;;;;;;;10.07;4.67;;;;;;;;;;5062951;28;20235;-82
2022/12/05 11:14:02;;;;;;;4.63;4.17;;;;;;;;;;5039318;28;20206;-83
2022/12/05 11:16:32;;;;;;;6.90;4.90;;;;;;;;;;5037187;28;20194;-81
2022/12/05 11:19:18;;;;;;;3.30;3.00;;;;;;;;;;5045034;28;20229;-82
2022/12/05 11:21:47;;;;;;;7.50;4.20;;;;;;;;;;5043664;28;20206;-84
2022/12/05 11:24:22;;;;;;;4.83;3.63;;;;;;;;;;5044839;28;20189;-82
2022/12/05 11:26:50;;;;;;;3.23;2.73;;;;;;;;;;5046136;28;20204;-83
2022/12/05 11:29:33;;;;;;;4.13;3.23;;;;;;;;;;5046366;28;20257;-81
2022/12/05 11:32:02;;;;;;;5.40;3.73;;;;;;;;;;5063322;28;20304;-83
2022/12/05 11:34:33;;;;;;;6.07;3.97;;;;;;;;;;5043363;28;20214;-82
2022/12/05 11:37:05;;;;;;;7.90;5.03;;;;;;;;;;5040682;28;20207;-82
2022/12/05 11:39:34;;;;;;;7.57;4.00;;;;;;;;;;5046771;28;20260;-81
2022/12/05 11:42:13;;;;;;;9.03;5.13;;;;;;;;;;5062097;28;20206;-82
2022/12/05 11:44:52;;;;;;;4.93;3.87;;;;;;;;;;5064509;28;20205;-82
2022/12/05 11:47:25;;;;;;;8.17;3.80;;;;;;;;;;5050111;28;20296;-82
2022/12/05 11:50:05;;;;;;;5.47;4.70;;;;;;;;;;5046080;28;20206;-83
2022/12/05 11:52:36;;;;;;;9.73;5.93;;;;;;;;;;5050402;28;20194;-83
2022/12/05 11:55:14;;;;;;;4.83;3.60;;;;;;;;;;5065297;28;20220;-83
2022/12/05 11:58:01;;;;;;;6.70;3.50;;;;;;;;;;5062420;28;20252;-84
2022/12/05 12:00:36;;;;;;;11.90;5.00;;;;;;;;;;5039256;28;20236;-83
2022/12/05 12:03:26;;;;;;;7.57;4.47;;;;;;;;;;5050509;28;20214;-83
2022/12/05 12:06:08;;;;;;;5.80;3.63;;;;;;;;;;5047659;28;20211;-83
2022/12/05 12:08:44;;;;;;;6.47;4.33;;;;;;;;;;5046185;28;20197;-82
2022/12/05 12:11:16;;;;;;;8.17;4.00;;;;;;;;;;5044421;28;20237;-82
2022/12/05 12:13:52;;;;;;;5.57;3.70;;;;;;;;;;5062994;28;20201;-83
2022/12/05 12:16:27;;;;;;;5.20;4.00;;;;;;;;;;5048180;28;20205;-82
2022/12/05 12:19:11;;;;;;;5.53;3.97;;;;;;;;;;5050275;28;20215;-83
2022/12/05 12:21:49;;;;;;;5.43;3.53;;;;;;;;;;5066427;28;20201;-82
2022/12/05 12:24:24;;;;;;;8.03;3.37;;;;;;;;;;5053669;28;20197;-83
2022/12/05 12:26:58;;;;;;;5.07;3.53;;;;;;;;;;5054776;28;20221;-83
2022/12/05 12:29:33;;;;;;;6.03;4.23;;;;;;;;;;5051063;28;20208;-82
2022/12/05 12:32:06;;;;;;;3.13;2.70;;;;;;;;;;5046960;28;20205;-81
2022/12/05 12:34:47;;;;;;;13.27;4.83;;;;;;;;;;5062380;28;20194;-82
2022/12/05 12:37:24;;;;;;;6.80;3.80;;;;;;;;;;5045153;28;20201;-82
2022/12/05 12:39:53;;;;;;;7.93;5.40;;;;;;;;;;5044848;28;20212;-83
2022/12/05 12:42:24;;;;;;;6.40;5.03;;;;;;;;;;5061764;28;20207;-83
2022/12/05 12:45:14;;;;;;;6.40;5.07;;;;;;;;;;5048556;28;20221;-83
2022/12/05 12:47:55;;;;;;;11.87;5.10;;;;;;;;;;5043484;28;20301;-83
2022/12/05 12:50:24;;;;;;;8.23;4.43;;;;;;;;;;5047674;28;20198;-82
2022/12/05 12:53:00;;;;;;;11.23;5.80;;;;;;;;;;5046636;28;20197;-84
2022/12/05 12:55:31;;;;;;;4.93;4.43;;;;;;;;;;5063788;28;20193;-84
2022/12/05 12:58:06;;;;;;;7.77;5.20;;;;;;;;;;5044651;28;20228;-83
2022/12/05 13:00:40;;;;;;;10.07;3.50;;;;;;;;;;5046744;28;20214;-85
2022/12/05 13:03:12;;;;;;;4.07;3.67;;;;;;;;;;5066716;28;20235;-85
2022/12/05 13:05:45;;;;;;;3.90;3.30;;;;;;;;;;5062563;28;20205;-84
2022/12/05 13:08:19;;;;;;;2.53;2.33;;;;;;;;;;5046413;28;20202;-83
2022/12/05 13:10:48;;;;;;;3.47;3.23;;;;;;;;;;5042769;28;20238;-84
2022/12/05 13:13:19;;;;;;;2.60;2.13;;;;;;;;;;5042128;28;20242;-84
2022/12/05 13:15:51;;;;;;;3.00;2.80;;;;;;;;;;5045007;28;20194;-83
2022/12/05 13:18:21;;;;;;;7.77;5.07;;;;;;;;;;5048233;28;20207;-84
2022/12/05 13:20:51;;;;;;;7.07;4.17;;;;;;;;;;5052781;28;20201;-84
2022/12/05 13:23:25;;;;;;;5.03;3.73;;;;;;;;;;5070083;28;20233;-84
2022/12/05 13:25:56;;;;;;;4.70;3.70;;;;;;;;;;5045413;28;20197;-84
2022/12/05 13:28:30;;;;;;;5.70;3.43;;;;;;;;;;5060903;28;20202;-84
2022/12/05 13:31:01;;;;;;;2.93;2.60;;;;;;;;;;5041944;28;20202;-83
2022/12/05 13:33:34;;;;;;;4.47;3.70;;;;;;;;;;5044029;28;20197;-83
2022/12/05 13:44:36;;;;;;;3.60;2.13;;;;;;;;;;5044743;28;20212;-83
2022/12/05 13:47:06;;;;;;;6.67;4.10;;;;;;;;;;5044608;28;20218;-84
2022/12/05 13:49:39;;;;;;;3.93;3.03;;;;;;;;;;5057517;28;21683;-83
2022/12/05 13:52:08;;;;;;;1.37;0.97;;;;;;;;;;5041497;28;20278;-83
2022/12/05 13:54:44;;;;;;;4.37;3.67;;;;;;;;;;5048289;28;20210;-84
2022/12/05 13:57:43;;;;;;;4.07;2.67;;;;;;;;;;5067616;28;20214;-83
2022/12/05 14:00:22;;;;;;;2.93;2.23;;;;;;;;;;5003892;28;20258;-83
2022/12/05 14:02:52;;;;;;;2.93;2.73;;;;;;;;;;5039771;28;20198;-83
2022/12/05 14:05:40;;;;;;;6.53;3.10;;;;;;;;;;5040468;28;20235;-82
2022/12/05 14:08:28;;;;;;;4.40;4.07;;;;;;;;;;5041382;28;20201;-82
2022/12/05 14:11:11;;;;;;;4.47;3.03;;;;;;;;;;5068287;28;20325;-81
2022/12/05 14:13:42;;;;;;;6.73;2.63;;;;;;;;;;5045231;28;20195;-82
2022/12/05 14:16:29;;;;;;;4.43;2.77;;;;;;;;;;5046731;28;20198;-82
2022/12/05 14:19:01;;;;;;;5.20;3.93;;;;;;;;;;5063779;28;20206;-82
2022/12/05 14:21:37;;;;;;;3.93;3.03;;;;;;;;;;5044506;28;20202;-83
2022/12/05 14:24:11;;;;;;;4.20;2.60;;;;;;;;;;5049001;28;20214;-82
2022/12/05 14:26:50;;;;;;;5.40;2.83;;;;;;;;;;5046103;28;20203;-82
2022/12/05 14:29:28;;;;;;;3.70;1.70;;;;;;;;;;5053837;28;20204;-82
2022/12/05 14:32:04;;;;;;;1.93;1.80;;;;;;;;;;5061827;28;20239;-83
2022/12/05 14:34:34;;;;;;;3.30;2.13;;;;;;;;;;5061001;28;20285;-84
2022/12/05 14:37:04;;;;;;;3.77;3.00;;;;;;;;;;5043980;28;20212;-82
2022/12/05 14:39:35;;;;;;;3.07;2.83;;;;;;;;;;5043471;28;20256;-82
2022/12/05 14:42:07;;;;;;;7.80;4.63;;;;;;;;;;5061563;28;20214;-82
2022/12/05 14:44:36;;;;;;;3.27;2.97;;;;;;;;;;5064657;28;20202;-84
2022/12/05 14:47:05;;;;;;;7.33;2.73;;;;;;;;;;5060704;28;20210;-82
2022/12/05 14:49:35;;;;;;;1.87;1.77;;;;;;;;;;5042512;28;20220;-82
2022/12/05 14:52:11;;;;;;;2.00;1.87;;;;;;;;;;5042613;28;20211;-82
2022/12/05 14:54:40;;;;;;;4.40;2.97;;;;;;;;;;5062969;28;20194;-83
2022/12/05 14:57:15;;;;;;;4.23;2.53;;;;;;;;;;5060173;28;20206;-83
2022/12/05 14:59:47;;;;;;;2.50;2.33;;;;;;;;;;5047912;28;20206;-84
2022/12/05 15:02:20;;;;;;;4.57;4.00;;;;;;;;;;5047501;28;20227;-82
2022/12/05 15:04:51;;;;;;;5.17;2.37;;;;;;;;;;5046183;28;20218;-83
2022/12/05 15:07:21;;;;;;;3.23;2.73;;;;;;;;;;5068708;28;20198;-84
2022/12/05 15:09:55;;;;;;;2.90;2.53;;;;;;;;;;5051148;28;20210;-84
2022/12/05 15:12:26;;;;;;;8.77;2.93;;;;;;;;;;5046252;28;20229;-83
2022/12/05 15:15:02;;;;;;;2.00;1.60;;;;;;;;;;5043360;28;20217;-84
2022/12/05 15:17:36;;;;;;;4.33;2.40;;;;;;;;;;5057208;28;20265;-84